createdAt,value
2023-05-24T00:02:25.523Z,1012.9
2023-05-24T00:05:25.439Z,1012.9
2023-05-24T00:08:25.436Z,1012.9
2023-05-24T00:11:25.454Z,1012.7
2023-05-24T00:14:25.456Z,1012.7
2023-05-24T00:17:25.483Z,1012.8
2023-05-24T00:20:25.532Z,1012.7
2023-05-24T00:23:25.469Z,1012.8
2023-05-24T00:26:25.475Z,1012.8
2023-05-24T00:29:25.471Z,1012.8
2023-05-24T00:32:25.486Z,1012.7
2023-05-24T00:35:25.483Z,1012.7
2023-05-24T00:38:25.486Z,1012.8
2023-05-24T00:41:25.488Z,1012.7
2023-05-24T00:44:25.491Z,1012.7
2023-05-24T00:47:25.545Z,1012.6
2023-05-24T00:50:25.520Z,1012.6
2023-05-24T00:53:25.506Z,1012.7
2023-05-24T00:56:25.520Z,1012.6
2023-05-24T00:59:25.527Z,1012.6
2023-05-24T01:02:25.575Z,1012.6
2023-05-24T01:05:25.544Z,1012.6
2023-05-24T01:08:25.541Z,1012.6
2023-05-24T01:11:25.544Z,1012.6
2023-05-24T01:14:25.554Z,1012.6
2023-05-24T01:17:25.588Z,1012.6
2023-05-24T01:20:25.609Z,1012.6
2023-05-24T01:23:25.573Z,1012.5
2023-05-24T01:26:25.581Z,1012.5
2023-05-24T01:29:25.582Z,1012.5
2023-05-24T01:32:25.628Z,1012.5
2023-05-24T01:35:25.588Z,1012.5
2023-05-24T01:38:25.595Z,1012.5
2023-05-24T01:41:25.595Z,1012.3
2023-05-24T01:44:25.609Z,1012.5
2023-05-24T01:47:25.638Z,1012.5
2023-05-24T01:50:25.981Z,1012.4
2023-05-24T01:53:25.614Z,1012.4
2023-05-24T01:56:25.616Z,1012.3
2023-05-24T01:59:25.626Z,1012.3
2023-05-24T02:02:25.682Z,1012.3
2023-05-24T02:05:25.638Z,1012.3
2023-05-24T02:08:25.640Z,1012.2
2023-05-24T02:11:25.642Z,1012.2
2023-05-24T02:14:25.636Z,1012.1
2023-05-24T02:17:25.666Z,1012.1
2023-05-24T02:20:25.699Z,1012.1
2023-05-24T02:23:25.662Z,1012
2023-05-24T02:26:25.668Z,1012
2023-05-24T02:29:25.673Z,1012
2023-05-24T02:32:25.688Z,1012
2023-05-24T02:35:25.678Z,1012.1
2023-05-24T02:38:25.673Z,1012.1
2023-05-24T02:41:25.684Z,1012.1
2023-05-24T02:44:25.686Z,1012
2023-05-24T02:47:25.710Z,1012
2023-05-24T02:50:25.696Z,1012
2023-05-24T02:53:25.696Z,1012
2023-05-24T02:56:25.696Z,1012.1
2023-05-24T02:59:25.733Z,1012.1
2023-05-24T03:02:25.698Z,1012.1
2023-05-24T03:05:25.705Z,1012
2023-05-24T03:08:25.703Z,1012.1
2023-05-24T03:11:25.709Z,1012.1
2023-05-24T03:14:25.725Z,1012.1
2023-05-24T03:17:25.780Z,1012.1
2023-05-24T03:20:25.738Z,1012.1
2023-05-24T03:23:25.731Z,1012.1
2023-05-24T03:26:25.727Z,1012.1
2023-05-24T03:29:25.741Z,1012.1
2023-05-24T03:32:25.744Z,1012
2023-05-24T03:35:25.890Z,1012
2023-05-24T03:38:25.748Z,1012
2023-05-24T03:41:26.028Z,1012.1
2023-05-24T03:44:26.057Z,1012.2
2023-05-24T03:47:26.049Z,1012.2
2023-05-24T03:50:25.762Z,1012.2
2023-05-24T03:53:25.972Z,1012.3
2023-05-24T03:56:25.779Z,1012.3
2023-05-24T03:59:25.779Z,1012.3
2023-05-24T04:02:25.864Z,1012.3
2023-05-24T04:05:25.788Z,1012.4
2023-05-24T04:08:25.793Z,1012.3
2023-05-24T04:11:25.802Z,1012.4
2023-05-24T04:14:25.818Z,1012.4
2023-05-24T04:17:25.992Z,1012.4
2023-05-24T04:20:26.003Z,1012.4
2023-05-24T04:23:25.810Z,1012.4
2023-05-24T04:26:25.813Z,1012.3
2023-05-24T04:29:25.820Z,1012.4
2023-05-24T04:32:25.917Z,1012.3
2023-05-24T04:35:25.837Z,1012.5
2023-05-24T04:38:25.842Z,1012.5
2023-05-24T04:41:25.920Z,1012.5
2023-05-24T04:44:25.858Z,1012.5
2023-05-24T04:47:25.873Z,1012.5
2023-05-24T04:50:25.846Z,1012.5
2023-05-24T04:53:25.888Z,1012.5
2023-05-24T04:56:25.857Z,1012.5
2023-05-24T04:59:25.872Z,1012.5
2023-05-24T05:02:25.905Z,1012.5
2023-05-24T05:05:26.046Z,1012.5
2023-05-24T05:08:25.884Z,1012.5
2023-05-24T05:11:25.883Z,1012.5
2023-05-24T05:14:25.892Z,1012.3
2023-05-24T05:17:25.897Z,1012.2
2023-05-24T05:20:26.241Z,1012.4
2023-05-24T05:23:25.904Z,1012.4
2023-05-24T05:26:25.908Z,1012.4
2023-05-24T05:29:25.960Z,1012.5
2023-05-24T05:32:25.988Z,1012.6
2023-05-24T05:35:25.964Z,1012.6
2023-05-24T05:38:25.916Z,1012.6
2023-05-24T05:41:25.922Z,1012.6
2023-05-24T05:44:25.926Z,1012.6
2023-05-24T05:47:25.977Z,1012.6
2023-05-24T05:50:25.941Z,1012.6
2023-05-24T05:53:25.946Z,1012.5
2023-05-24T05:56:25.945Z,1012.5
2023-05-24T05:59:25.952Z,1012.7
2023-05-24T06:02:26.002Z,1012.7
2023-05-24T06:05:25.975Z,1012.8
2023-05-24T06:08:25.963Z,1012.7
2023-05-24T06:11:25.969Z,1012.7
2023-05-24T06:14:25.975Z,1012.8
2023-05-24T06:17:26.013Z,1012.7
2023-05-24T06:20:26.005Z,1012.8
2023-05-24T06:23:25.996Z,1012.8
2023-05-24T06:26:25.993Z,1012.8
2023-05-24T06:29:25.999Z,1012.9
2023-05-24T06:32:26.008Z,1012.8
2023-05-24T06:35:26.009Z,1012.8
2023-05-24T06:38:26.014Z,1012.9
2023-05-24T06:41:26.021Z,1012.9
2023-05-24T06:44:26.028Z,1013
2023-05-24T06:47:26.075Z,1013
2023-05-24T06:50:26.096Z,1013
2023-05-24T06:53:26.037Z,1013.1
2023-05-24T06:56:26.037Z,1013.1
2023-05-24T06:59:26.040Z,1013.2
2023-05-24T07:02:26.071Z,1013.2
2023-05-24T07:05:26.050Z,1013.2
2023-05-24T07:08:26.045Z,1013.3
2023-05-24T07:11:26.097Z,1013.2
2023-05-24T07:14:26.128Z,1013.2
2023-05-24T07:17:26.083Z,1013.3
2023-05-24T07:20:26.112Z,1013.4
2023-05-24T07:23:26.072Z,1013.3
2023-05-24T07:26:26.092Z,1013.4
2023-05-24T07:29:26.116Z,1013.5
2023-05-24T07:32:26.133Z,1013.5
2023-05-24T07:35:26.077Z,1013.5
2023-05-24T07:38:26.081Z,1013.4
2023-05-24T07:41:26.094Z,1013.4
2023-05-24T07:44:26.114Z,1013.4
2023-05-24T07:47:26.140Z,1013.4
2023-05-24T07:50:26.112Z,1013.5
2023-05-24T07:53:26.121Z,1013.5
2023-05-24T07:56:26.111Z,1013.5
2023-05-24T07:59:26.125Z,1013.6
2023-05-24T08:02:26.181Z,1013.5
2023-05-24T08:05:26.129Z,1013.5
2023-05-24T08:08:26.138Z,1013.5
2023-05-24T08:11:26.136Z,1013.5
2023-05-24T08:14:26.137Z,1013.6
2023-05-24T08:17:26.154Z,1013.6
2023-05-24T08:20:26.165Z,1013.6
2023-05-24T08:23:26.166Z,1013.7
2023-05-24T08:26:26.167Z,1013.6
2023-05-24T08:29:26.183Z,1013.7
2023-05-24T08:32:26.190Z,1013.7
2023-05-24T08:35:26.183Z,1013.6
2023-05-24T08:38:26.168Z,1013.7
2023-05-24T08:41:26.167Z,1013.7
2023-05-24T08:44:26.177Z,1013.6
2023-05-24T08:47:26.478Z,1013.6
2023-05-24T08:50:26.184Z,1013.7
2023-05-24T08:53:26.199Z,1013.7
2023-05-24T08:56:26.203Z,1013.8
2023-05-24T08:59:26.194Z,1013.8
2023-05-24T09:02:26.219Z,1013.9
2023-05-24T09:05:26.204Z,1013.9
2023-05-24T09:08:26.206Z,1013.9
2023-05-24T09:11:26.212Z,1013.9
2023-05-24T09:14:26.218Z,1013.9
2023-05-24T09:17:26.247Z,1013.9
2023-05-24T09:20:26.265Z,1013.8
2023-05-24T09:23:26.230Z,1013.8
2023-05-24T09:26:26.233Z,1013.7
2023-05-24T09:29:26.241Z,1013.8
2023-05-24T09:32:26.319Z,1013.8
2023-05-24T09:35:26.227Z,1013.8
2023-05-24T09:38:26.237Z,1013.8
2023-05-24T09:41:26.239Z,1013.8
2023-05-24T09:44:26.244Z,1013.8
2023-05-24T09:47:26.269Z,1013.8
2023-05-24T09:50:26.239Z,1013.8
2023-05-24T09:53:26.240Z,1013.7
2023-05-24T09:56:26.267Z,1013.6
2023-05-24T09:59:26.272Z,1013.7
2023-05-24T10:02:26.325Z,1013.7
2023-05-24T10:05:26.298Z,1013.7
2023-05-24T10:08:26.297Z,1013.7
2023-05-24T10:11:26.312Z,1013.7
2023-05-24T10:14:26.315Z,1013.7
2023-05-24T10:17:26.343Z,1013.7
2023-05-24T10:20:26.417Z,1013.8
2023-05-24T10:23:26.337Z,1013.8
2023-05-24T10:26:26.349Z,1013.8
2023-05-24T10:29:26.360Z,1013.8
2023-05-24T10:32:26.389Z,1014
2023-05-24T10:35:26.365Z,1014
2023-05-24T10:38:26.359Z,1014
2023-05-24T10:41:26.382Z,1014
2023-05-24T10:44:26.382Z,1014
2023-05-24T10:47:26.423Z,1014.1
2023-05-24T10:50:26.395Z,1014.1
2023-05-24T10:53:26.395Z,1014.1
2023-05-24T10:56:26.411Z,1014.1
2023-05-24T10:59:26.405Z,1014
2023-05-24T11:02:26.433Z,1014
2023-05-24T11:05:26.435Z,1014
2023-05-24T11:08:26.441Z,1014
2023-05-24T11:11:28.122Z,1014
2023-05-24T11:14:26.425Z,1014
2023-05-24T11:17:26.488Z,1014.1
2023-05-24T11:20:26.528Z,1014.1
2023-05-24T11:23:26.452Z,1014
2023-05-24T11:26:26.450Z,1014
2023-05-24T11:29:26.454Z,1014
2023-05-24T11:32:26.514Z,1014
2023-05-24T11:35:26.461Z,1014.1
2023-05-24T11:38:26.498Z,1014.1
2023-05-24T11:41:26.469Z,1014
2023-05-24T11:44:26.471Z,1014.1
2023-05-24T11:47:26.500Z,1014.1
2023-05-24T11:50:26.931Z,1013.9
2023-05-24T11:53:26.499Z,1014
2023-05-24T11:56:26.490Z,1013.9
2023-05-24T11:59:26.512Z,1014.1
2023-05-24T12:02:26.548Z,1014
2023-05-24T12:05:26.522Z,1014.1
2023-05-24T12:08:26.512Z,1014.1
2023-05-24T12:11:26.518Z,1014.1
2023-05-24T12:14:26.521Z,1014.1
2023-05-24T12:17:26.625Z,1013.9
2023-05-24T12:20:26.565Z,1014.1
2023-05-24T12:23:26.540Z,1014.1
2023-05-24T12:26:26.542Z,1014
2023-05-24T12:29:26.556Z,1014
2023-05-24T12:32:26.575Z,1014
2023-05-24T12:35:26.554Z,1014
2023-05-24T12:38:26.568Z,1014
2023-05-24T12:41:26.570Z,1014.1
2023-05-24T12:44:26.581Z,1014.1
2023-05-24T12:47:26.650Z,1014
2023-05-24T12:50:26.583Z,1014
2023-05-24T12:53:26.574Z,1014
2023-05-24T12:56:26.593Z,1014
2023-05-24T12:59:26.599Z,1014
2023-05-24T13:02:26.655Z,1014
2023-05-24T13:05:26.712Z,1014
2023-05-24T13:08:26.639Z,1014.1
2023-05-24T13:11:26.618Z,1014.1
2023-05-24T13:14:26.631Z,1014.1
2023-05-24T13:17:26.651Z,1014.1
2023-05-24T13:20:26.691Z,1014.1
2023-05-24T13:23:26.638Z,1014.1
2023-05-24T13:26:26.641Z,1014
2023-05-24T13:32:26.702Z,1014.1
2023-05-24T13:35:26.669Z,1014
2023-05-24T13:38:26.686Z,1014.1
2023-05-24T13:41:26.677Z,1014
2023-05-24T13:44:26.665Z,1014
2023-05-24T13:47:35.733Z,1014.1
2023-05-24T13:50:26.679Z,1014
2023-05-24T13:53:26.689Z,1014
2023-05-24T13:56:26.694Z,1014
2023-05-24T13:59:26.692Z,1014
2023-05-24T14:02:26.714Z,1014
2023-05-24T14:05:50.905Z,1013.9
2023-05-24T14:08:26.708Z,1013.9
2023-05-24T14:11:26.712Z,1014
2023-05-24T14:17:26.732Z,1013.9
2023-05-24T14:20:26.780Z,1013.9
2023-05-24T14:23:26.726Z,1014
2023-05-24T14:26:26.739Z,1014
2023-05-24T14:29:26.745Z,1014
2023-05-24T14:32:26.798Z,1014
2023-05-24T14:35:26.750Z,1014
2023-05-24T14:38:26.767Z,1014
2023-05-24T14:41:26.753Z,1014.1
2023-05-24T14:44:26.766Z,1014.1
2023-05-24T14:47:26.795Z,1013.9
2023-05-24T14:50:26.776Z,1014
2023-05-24T14:53:26.782Z,1014.1
2023-05-24T14:56:26.778Z,1014.2
2023-05-24T14:59:26.772Z,1014.2
2023-05-24T15:02:26.877Z,1014.3
2023-05-24T15:05:26.793Z,1014.3
2023-05-24T15:08:26.797Z,1014.3
2023-05-24T15:11:26.800Z,1014.3
2023-05-24T15:14:26.803Z,1014.3
2023-05-24T15:17:26.857Z,1014.2
2023-05-24T15:20:26.971Z,1014.3
2023-05-24T15:23:26.817Z,1014.3
2023-05-24T15:26:26.814Z,1014.3
2023-05-24T15:29:26.827Z,1014.3
2023-05-24T15:32:26.830Z,1014.3
2023-05-24T15:35:26.832Z,1014.3
2023-05-24T15:38:26.850Z,1014.2
2023-05-24T15:41:26.840Z,1014.3
2023-05-24T15:44:26.843Z,1014.3
2023-05-24T15:47:26.915Z,1014.3
2023-05-24T15:50:44.026Z,1014.2
2023-05-24T15:53:26.868Z,1014.3
2023-05-24T15:56:26.866Z,1014.3
2023-05-24T15:59:26.859Z,1014.3
2023-05-24T16:02:26.989Z,1014.3
2023-05-24T16:05:26.882Z,1014.2
2023-05-24T16:08:26.888Z,1014.2
2023-05-24T16:11:26.892Z,1014.2
2023-05-24T16:14:26.894Z,1014.3
2023-05-24T16:17:26.962Z,1014.2
2023-05-24T16:20:26.984Z,1014.2
2023-05-24T16:23:26.964Z,1014.2
2023-05-24T16:26:26.977Z,1014.2
2023-05-24T16:29:26.990Z,1014.3
2023-05-24T16:32:27.010Z,1014.3
2023-05-24T16:35:26.978Z,1014.3
2023-05-24T16:38:26.987Z,1014.2
2023-05-24T16:41:26.983Z,1014.2
2023-05-24T16:44:26.983Z,1014.2
2023-05-24T16:47:29.520Z,1014.3
2023-05-24T16:50:26.982Z,1014.2
2023-05-24T16:53:26.982Z,1014.2
2023-05-24T16:56:27.007Z,1014.2
2023-05-24T16:59:27.021Z,1014.2
2023-05-24T17:02:27.215Z,1014.2
2023-05-24T17:05:27.036Z,1014.2
2023-05-24T17:08:27.024Z,1014.2
2023-05-24T17:11:27.017Z,1014.2
2023-05-24T17:14:27.027Z,1014.2
2023-05-24T17:17:27.038Z,1014.2
2023-05-24T17:20:27.042Z,1014.2
2023-05-24T17:23:27.033Z,1014.3
2023-05-24T17:26:27.038Z,1014.2
2023-05-24T17:29:27.036Z,1014.3
2023-05-24T17:32:27.044Z,1014.3
2023-05-24T17:35:27.045Z,1014.3
2023-05-24T17:38:27.036Z,1014.3
2023-05-24T17:41:27.038Z,1014.4
2023-05-24T17:44:27.039Z,1014.3
2023-05-24T17:47:27.091Z,1014.4
2023-05-24T17:50:27.050Z,1014.4
2023-05-24T17:53:31.525Z,1014.5
2023-05-24T17:56:27.035Z,1014.5
2023-05-24T17:59:27.039Z,1014.4
2023-05-24T18:02:27.073Z,1014.5
2023-05-24T18:05:27.045Z,1014.6
2023-05-24T18:08:27.051Z,1014.4
2023-05-24T18:11:27.062Z,1014.5
2023-05-24T18:14:27.112Z,1014.5
2023-05-24T18:17:27.111Z,1014.5
2023-05-24T18:20:27.108Z,1014.5
2023-05-24T18:23:27.060Z,1014.5
2023-05-24T18:26:27.053Z,1014.5
2023-05-24T18:29:27.064Z,1014.5
2023-05-24T18:32:27.111Z,1014.4
2023-05-24T18:35:27.054Z,1014.4
2023-05-24T18:38:27.065Z,1014.5
2023-05-24T18:41:27.082Z,1014.5
2023-05-24T18:44:27.074Z,1014.5
2023-05-24T18:47:27.083Z,1014.5
2023-05-24T18:50:27.090Z,1014.6
2023-05-24T18:53:27.087Z,1014.5
2023-05-24T18:56:27.090Z,1014.6
2023-05-24T18:59:27.090Z,1014.7
2023-05-24T19:02:27.131Z,1014.7
2023-05-24T19:05:27.086Z,1014.7
2023-05-24T19:08:27.096Z,1014.6
2023-05-24T19:11:27.097Z,1014.7
2023-05-24T19:14:27.102Z,1014.7
2023-05-24T19:17:27.136Z,1014.8
2023-05-24T19:20:27.123Z,1014.8
2023-05-24T19:23:27.098Z,1014.8
2023-05-24T19:26:27.100Z,1014.8
2023-05-24T19:29:27.118Z,1014.9
2023-05-24T19:32:27.165Z,1014.9
2023-05-24T19:35:27.108Z,1014.9
2023-05-24T19:38:27.132Z,1015
2023-05-24T19:41:27.113Z,1015
2023-05-24T19:44:27.152Z,1015.1
2023-05-24T19:47:27.162Z,1015
2023-05-24T19:50:29.097Z,1015.1
2023-05-24T19:53:27.124Z,1015.1
2023-05-24T19:56:27.126Z,1015.2
2023-05-24T19:59:27.136Z,1015.2
2023-05-24T20:02:27.180Z,1015.1
2023-05-24T20:05:27.154Z,1015.1
2023-05-24T20:08:27.137Z,1015.2
2023-05-24T20:11:27.126Z,1015.2
2023-05-24T20:14:27.140Z,1015.2
2023-05-24T20:17:27.143Z,1015.3
2023-05-24T20:20:27.150Z,1015.3
2023-05-24T20:23:27.136Z,1015.4
2023-05-24T20:26:27.169Z,1015.3
2023-05-24T20:29:27.149Z,1015.4
2023-05-24T20:32:27.175Z,1015.4
2023-05-24T20:35:27.158Z,1015.4
2023-05-24T20:38:27.144Z,1015.4
2023-05-24T20:41:27.142Z,1015.4
2023-05-24T20:44:27.164Z,1015.3
2023-05-24T20:47:28.646Z,1015.4
2023-05-24T20:50:27.157Z,1015.4
2023-05-24T20:53:27.157Z,1015.6
2023-05-24T20:56:27.160Z,1015.6
2023-05-24T20:59:27.168Z,1015.6
2023-05-24T21:02:27.184Z,1015.6
2023-05-24T21:05:27.165Z,1015.6
2023-05-24T21:08:27.171Z,1015.7
2023-05-24T21:11:27.166Z,1015.7
2023-05-24T21:14:27.173Z,1015.8
2023-05-24T21:17:27.176Z,1015.8
2023-05-24T21:20:27.186Z,1015.9
2023-05-24T21:23:27.168Z,1015.8
2023-05-24T21:26:27.170Z,1015.9
2023-05-24T21:29:27.182Z,1016
2023-05-24T21:32:27.175Z,1016
2023-05-24T21:35:27.177Z,1016
2023-05-24T21:38:27.177Z,1016.1
2023-05-24T21:41:27.180Z,1016.1
2023-05-24T21:44:27.207Z,1016.2
2023-05-24T21:47:27.245Z,1016.2
2023-05-24T21:50:27.198Z,1016.2
2023-05-24T21:53:27.275Z,1016.2
2023-05-24T21:56:27.209Z,1016.2
2023-05-24T21:59:27.227Z,1016.3
2023-05-24T22:02:27.201Z,1016.3
2023-05-24T22:05:27.833Z,1016.3
2023-05-24T22:08:27.197Z,1016.2
2023-05-24T22:11:27.193Z,1016.2
2023-05-24T22:14:27.222Z,1016.2
2023-05-24T22:17:27.227Z,1016.3
2023-05-24T22:20:27.239Z,1016.3
2023-05-24T22:23:27.200Z,1016.3
2023-05-24T22:26:27.194Z,1016.5
2023-05-24T22:29:27.212Z,1016.5
2023-05-24T22:32:27.217Z,1016.6
2023-05-24T22:35:27.213Z,1016.6
2023-05-24T22:38:27.205Z,1016.5
2023-05-24T22:41:27.207Z,1016.6
2023-05-24T22:44:27.240Z,1016.6
2023-05-24T22:47:27.256Z,1016.6
2023-05-24T22:50:27.220Z,1016.6
2023-05-24T22:53:27.228Z,1016.7
2023-05-24T22:56:27.229Z,1016.6
2023-05-24T22:59:27.240Z,1016.5
2023-05-24T23:02:27.236Z,1016.6
2023-05-24T23:05:27.246Z,1016.5
2023-05-24T23:08:27.239Z,1016.5
2023-05-24T23:11:27.223Z,1016.5
2023-05-24T23:14:27.245Z,1016.6
2023-05-24T23:17:27.308Z,1016.7
2023-05-24T23:20:27.275Z,1016.7
2023-05-24T23:23:27.265Z,1016.8
2023-05-24T23:26:27.252Z,1016.7
2023-05-24T23:29:27.256Z,1016.7
2023-05-24T23:32:27.275Z,1016.7
2023-05-24T23:35:27.254Z,1016.7
2023-05-24T23:38:27.264Z,1016.7
2023-05-24T23:41:27.306Z,1016.7
2023-05-24T23:44:27.271Z,1016.7
2023-05-24T23:47:27.303Z,1016.7
2023-05-24T23:50:27.274Z,1016.7
2023-05-24T23:53:27.261Z,1016.7
2023-05-24T23:56:27.284Z,1016.7
2023-05-24T23:59:27.302Z,1016.7
